Fairbanks, AK (99701)

2:32 AM AKST on March 06, 2015 (GMT -0900)
AKDOT 14th Avenue @ Eielson Street | Change Station
CLOSE
Current Station
Personal Weather Station
Location: Fairbanks, AK
Elevation: 482 ft
Nearby Weather Stations
Active Advisory: Winter Weather Advisory

Elev 482 ft 64.84 °N, 147.71 °W | Updated 39 minutes ago

Light Snow
Light Snow Mist
28 °F
Feels Like 28 °F
N
0
Wind Variable Wind from ENE
Gusts 2.0 mph

Today
High -- | Low -- °F
--% Chance of Precip.
Yesterday
High -- | Low -- °F
Precip. -- in
7:42 AM 6:23 PM
Full, 100% visible
Pressure 30.06 in
Visibility 5.0 miles
Clouds Scattered Clouds 2000 ft
Mostly Cloudy 3500 ft
Overcast 7500 ft
Windchill 28 °F
Dew Point 26 °F
Humidity 91%
Rainfall in
Snow Depth Not available.
UV 0 out of 12
Pollen Not available.
Air Quality Not available.
Flu Activity Not available.
METAR PAFA 061053Z 23003KT 5SM -SN BR SCT020 BKN035 OVC075 M02/M04 A3002 RMK AO2 SLP177 T10221039 $

More Conditions Fewer Conditions

Pressure 30.06 in
Visibility 5.0 miles
Clouds Scattered Clouds 2000 ft
Mostly Cloudy 3500 ft
Overcast 7500 ft
Windchill 28 °F
Dew Point 26 °F
Humidity 91%
Rainfall in
Snow Depth Not available.
UV 0 out of 12
Pollen Not available.
Air Quality Not available.
Flu Activity Not available.
METAR PAFA 061053Z 23003KT 5SM -SN BR SCT020 BKN035 OVC075 M02/M04 A3002 RMK AO2 SLP177 T10221039 $

More Conditions Fewer Conditions

10-Day Weather Forecast

Almanac

Astronomy

Mar. 06, 2015 Rise Set
Actual Time
Civil Twilight
Nautical Twilight
Astronomical Twilight
Moon
Length of Visible Light
Length of Day
Tomorrow will be .
, % of the Moon is Illuminated

Today's Extremes

State Highs State Lows

Community

WunderPhotos

Upload Photos

1,803,228 photos uploaded!

WunderBlogs® & News

Nearby

Air Quality

  Air Quality AQ Index Pollutant
Not available.

Snow Depth

Station Depth Elevation

Earthquake Activity

City Distance Mag. Time & Date
Minimum magnitude displayed is 2.5.

Coastal Water Temperatures

Place Temperature

Nearby Weather Stations

Winter Weather Advisory
Statement as of 7:20 PM AKST on March 05, 2015

... Winter Weather Advisory in effect until 6 am akst Friday...

The National Weather Service in Fairbanks has issued a Winter
Weather Advisory for snow which is in effect until 6 am akst
Friday.

* Location... over the hills around Fairbanks.

* Snow... 4 to 6 inches. Around 3 inches in the valley.

* Timing... snow will be heaviest this evening and overnight
tapering to flurries in the morning.

* Impacts... visibility may be greatly reduced. Travel and outdoor
activities will be difficult.

Precautionary/preparedness actions...

A Winter Weather Advisory means that one or more winter weather
hazards are expected to cause travel difficulties.